Time;durP1;ratioP1;P1;durP2;ratioP2;P2;SDS_P1;SDS_P2;PMS_P1;PMS_P2;Temp;Humidity;BMP_temperature;BMP_pressure;BME280_temperature;BME280_humidity;BME280_pressure;Samples;Min_cycle;Max_cycle;Signal;HPM_P1;HPM_P2
2021/05/24 00:01:30;;;;;;;1.30;0.30;;;23.60;38.20;;;;;;5051471;28;20492;-62
2021/05/24 00:03:56;;;;;;;0.70;0.30;;;23.60;38.20;;;;;;5051643;28;20423;-63
2021/05/24 00:06:22;;;;;;;0.85;0.40;;;23.50;38.10;;;;;;5051409;28;20378;-63
2021/05/24 00:08:48;;;;;;;1.02;0.40;;;23.60;38.20;;;;;;5051541;28;20405;-62
2021/05/24 00:11:16;;;;;;;1.27;0.50;;;23.50;38.10;;;;;;5051591;28;20389;-64
2021/05/24 00:13:52;;;;;;;1.33;0.38;;;23.50;38.10;;;;;;5051546;28;20393;-63
2021/05/24 00:16:18;;;;;;;1.30;0.30;;;23.50;38.10;;;;;;5051392;28;20392;-62
2021/05/24 00:18:46;;;;;;;0.68;0.30;;;23.50;38.10;;;;;;5051297;28;20469;-63
2021/05/24 00:21:12;;;;;;;1.00;0.40;;;23.50;38.00;;;;;;5051460;28;20446;-63
2021/05/24 00:23:37;;;;;;;1.30;0.40;;;23.50;38.00;;;;;;5051469;28;20405;-63
2021/05/24 00:26:03;;;;;;;1.37;0.40;;;23.50;38.00;;;;;;5051207;28;20527;-63
2021/05/24 00:28:29;;;;;;;1.70;0.40;;;23.50;38.60;;;;;;5050606;28;20783;-63
2021/05/24 00:30:54;;;;;;;0.70;0.30;;;23.50;38.00;;;;;;5051271;28;20393;-62
2021/05/24 00:33:20;;;;;;;0.82;0.40;;;23.50;38.00;;;;;;5051341;28;20443;-63
2021/05/24 00:35:46;;;;;;;1.30;0.30;;;23.50;38.00;;;;;;5051358;28;20401;-63
2021/05/24 00:38:12;;;;;;;0.70;0.30;;;23.40;38.00;;;;;;5051660;28;20388;-63
2021/05/24 00:40:38;;;;;;;0.65;0.35;;;23.40;38.00;;;;;;5050762;28;20749;-63
2021/05/24 00:43:06;;;;;;;0.47;0.25;;;23.40;38.00;;;;;;5051257;28;20450;-64
2021/05/24 00:45:32;;;;;;;0.63;0.30;;;23.50;38.00;;;;;;5051201;28;20532;-63
2021/05/24 00:47:58;;;;;;;0.50;0.20;;;23.40;38.00;;;;;;5051157;28;20816;-62
2021/05/24 00:50:24;;;;;;;1.25;0.40;;;23.40;38.00;;;;;;5050920;28;20750;-63
2021/05/24 00:52:49;;;;;;;0.75;0.40;;;23.40;38.00;;;;;;5033112;28;20406;-63
2021/05/24 00:55:16;;;;;;;1.10;0.37;;;23.40;38.00;;;;;;5051139;28;20396;-63
2021/05/24 00:57:43;;;;;;;0.67;0.37;;;23.40;38.00;;;;;;5051539;28;20400;-64
2021/05/24 01:00:13;;;;;;;0.70;0.30;;;23.40;37.90;;;;;;5051304;28;20389;-64
2021/05/24 01:02:39;;;;;;;0.70;0.30;;;23.40;38.00;;;;;;5043502;28;20409;-64
2021/05/24 01:05:05;;;;;;;0.90;0.30;;;23.40;37.90;;;;;;5050983;28;20420;-64
2021/05/24 01:07:31;;;;;;;0.77;0.30;;;23.40;37.90;;;;;;5051069;28;20374;-63
2021/05/24 01:09:57;;;;;;;0.60;0.37;;;23.40;37.90;;;;;;5051085;28;20394;-63
2021/05/24 01:12:23;;;;;;;0.50;0.20;;;23.40;37.90;;;;;;5050875;28;20876;-63
2021/05/24 01:14:48;;;;;;;0.50;0.30;;;23.40;38.00;;;;;;5050728;28;20876;-63
2021/05/24 01:17:14;;;;;;;0.70;0.40;;;23.40;37.90;;;;;;5050448;28;20385;-63
2021/05/24 01:19:45;;;;;;;0.60;0.30;;;23.30;37.90;;;;;;5050446;28;20407;-62
2021/05/24 01:22:16;;;;;;;0.70;0.30;;;23.30;37.80;;;;;;5050934;28;20401;-63
2021/05/24 01:24:42;;;;;;;0.43;0.20;;;23.30;37.80;;;;;;5050366;28;20893;-63
2021/05/24 01:27:08;;;;;;;0.68;0.40;;;23.30;37.90;;;;;;5050819;28;20390;-63
2021/05/24 01:29:34;;;;;;;0.75;0.40;;;23.30;37.90;;;;;;5050859;28;20400;-63
2021/05/24 01:32:00;;;;;;;0.47;0.30;;;23.30;37.90;;;;;;5050770;28;20388;-63
2021/05/24 01:34:26;;;;;;;0.93;0.23;;;23.30;37.90;;;;;;5050641;28;20468;-63
2021/05/24 01:36:52;;;;;;;0.57;0.22;;;23.30;37.90;;;;;;5049324;28;20386;-63
2021/05/24 01:39:19;;;;;;;0.70;0.40;;;23.30;37.80;;;;;;5052107;28;20443;-63
2021/05/24 01:41:48;;;;;;;0.50;0.30;;;23.30;37.90;;;;;;5054324;28;20431;-63
2021/05/24 01:44:25;;;;;;;0.60;0.30;;;23.30;37.90;;;;;;5054218;28;20409;-63
2021/05/24 01:46:51;;;;;;;0.50;0.30;;;23.30;37.80;;;;;;5053979;28;20386;-63
2021/05/24 01:49:17;;;;;;;0.50;0.30;;;23.30;37.80;;;;;;5054161;28;20416;-63
2021/05/24 01:51:42;;;;;;;0.70;0.30;;;23.30;37.80;;;;;;5054188;28;20428;-63
2021/05/24 01:54:08;;;;;;;0.52;0.30;;;23.30;37.90;;;;;;5054157;28;20736;-63
2021/05/24 01:56:33;;;;;;;0.60;0.30;;;23.30;37.80;;;;;;5053531;28;20397;-63
2021/05/24 01:58:59;;;;;;;0.60;0.20;;;23.30;37.80;;;;;;5054060;28;20385;-63
2021/05/24 02:01:25;;;;;;;0.65;0.22;;;23.30;37.70;;;;;;5053799;28;20409;-63
2021/05/24 02:03:50;;;;;;;0.30;0.20;;;23.30;37.70;;;;;;5053635;28;20425;-63
2021/05/24 02:06:16;;;;;;;1.23;0.30;;;23.30;37.70;;;;;;5054156;28;20888;-64
2021/05/24 02:08:41;;;;;;;0.30;0.20;;;23.20;37.60;;;;;;5053355;28;20431;-63
2021/05/24 02:11:07;;;;;;;0.80;0.40;;;23.20;37.70;;;;;;5053761;28;20393;-64
2021/05/24 02:13:33;;;;;;;0.53;0.30;;;23.20;37.70;;;;;;5053759;28;20382;-63
2021/05/24 02:15:58;;;;;;;0.80;0.30;;;23.20;37.80;;;;;;5053654;28;20397;-63
2021/05/24 02:18:24;;;;;;;1.10;0.50;;;23.20;37.70;;;;;;5035786;28;20424;-63
2021/05/24 02:20:50;;;;;;;0.93;0.30;;;23.20;37.70;;;;;;5053046;28;20390;-63
2021/05/24 02:23:16;;;;;;;0.70;0.30;;;23.20;37.70;;;;;;5053493;28;20477;-64
2021/05/24 02:25:42;;;;;;;0.75;0.30;;;23.20;37.70;;;;;;5053529;28;20393;-64
2021/05/24 02:28:08;;;;;;;0.57;0.20;;;23.20;37.70;;;;;;5053503;28;20396;-64
2021/05/24 02:30:34;;;;;;;0.60;0.30;;;23.20;37.70;;;;;;5053018;28;20398;-62
2021/05/24 02:33:01;;;;;;;0.67;0.27;;;23.20;37.70;;;;;;5053586;28;20463;-63
2021/05/24 02:35:27;;;;;;;0.47;0.20;;;23.20;37.60;;;;;;5053306;28;20974;-63
2021/05/24 02:37:54;;;;;;;0.43;0.20;;;23.20;38.30;;;;;;5053360;28;20394;-64
2021/05/24 02:40:22;;;;;;;0.50;0.22;;;23.20;37.70;;;;;;5053451;28;20405;-64
2021/05/24 02:42:48;;;;;;;0.55;0.28;;;23.10;37.70;;;;;;5052680;28;20480;-63
2021/05/24 02:45:16;;;;;;;0.45;0.20;;;23.10;38.30;;;;;;5053159;28;20409;-64
2021/05/24 02:47:42;;;;;;;0.40;0.20;;;23.20;37.70;;;;;;5053400;28;20741;-64
2021/05/24 02:50:10;;;;;;;1.10;0.30;;;23.20;37.70;;;;;;5052584;28;20873;-63
2021/05/24 02:52:36;;;;;;;0.52;0.20;;;23.10;37.60;;;;;;5052654;28;20912;-63
2021/05/24 02:55:03;;;;;;;0.50;0.30;;;23.20;37.60;;;;;;5052943;28;20424;-63
2021/05/24 02:57:29;;;;;;;0.45;0.20;;;23.10;37.50;;;;;;5052903;28;20396;-63
2021/05/24 02:59:54;;;;;;;0.60;0.20;;;23.10;38.20;;;;;;5052894;28;20390;-63
2021/05/24 03:02:26;;;;;;;0.73;0.20;;;23.10;37.60;;;;;;5052689;28;20417;-62
2021/05/24 03:04:51;;;;;;;0.90;0.30;;;23.10;37.70;;;;;;5051957;28;20773;-63
2021/05/24 03:07:17;;;;;;;0.90;0.33;;;23.10;37.70;;;;;;5052136;28;20386;-63
2021/05/24 03:09:43;;;;;;;0.45;0.20;;;23.10;37.60;;;;;;5052514;28;20394;-63
2021/05/24 03:12:08;;;;;;;0.60;0.20;;;23.10;37.60;;;;;;5052698;28;20469;-63
2021/05/24 03:14:34;;;;;;;0.32;0.20;;;23.10;37.60;;;;;;5052100;28;20515;-59
2021/05/24 03:17:00;;;;;;;0.40;0.30;;;23.10;37.60;;;;;;5052562;28;20475;-63
2021/05/24 03:19:25;;;;;;;0.50;0.22;;;23.00;37.70;;;;;;5052551;28;20669;-63
2021/05/24 03:21:51;;;;;;;0.33;0.20;;;22.90;37.80;;;;;;5052221;28;20492;-63
2021/05/24 03:24:17;;;;;;;0.45;0.30;;;22.90;37.90;;;;;;5052345;28;20444;-63
2021/05/24 03:26:43;;;;;;;0.40;0.20;;;22.80;37.90;;;;;;5051939;28;20393;-62
2021/05/24 03:29:09;;;;;;;0.35;0.20;;;22.90;38.00;;;;;;5052378;28;20399;-63
2021/05/24 03:31:35;;;;;;;0.47;0.30;;;22.90;38.00;;;;;;5052291;28;20392;-63
2021/05/24 03:34:00;;;;;;;0.45;0.25;;;22.80;38.00;;;;;;5052180;28;20746;-63
2021/05/24 03:36:27;;;;;;;0.30;0.20;;;22.80;38.00;;;;;;5052215;28;20389;-63
2021/05/24 03:38:52;;;;;;;0.57;0.25;;;22.70;38.00;;;;;;5051585;28;20393;-63
2021/05/24 03:41:18;;;;;;;0.47;0.30;;;22.70;38.10;;;;;;5052107;28;20390;-62
2021/05/24 03:43:46;;;;;;;0.60;0.20;;;22.70;38.10;;;;;;5051963;28;20397;-63
2021/05/24 03:46:11;;;;;;;0.35;0.20;;;22.70;38.10;;;;;;5052240;28;20405;-63
2021/05/24 03:48:37;;;;;;;0.52;0.20;;;22.60;38.20;;;;;;5051747;28;20400;-63
2021/05/24 03:51:05;;;;;;;0.40;0.20;;;22.60;38.30;;;;;;5051899;28;20389;-63
2021/05/24 03:53:30;;;;;;;0.70;0.28;;;22.60;38.40;;;;;;5051836;28;20401;-63
2021/05/24 03:55:56;;;;;;;0.50;0.30;;;22.60;38.40;;;;;;5051858;28;20390;-62
2021/05/24 03:58:21;;;;;;;0.32;0.10;;;22.60;38.40;;;;;;5051726;28;20758;-64
2021/05/24 04:00:47;;;;;;;0.50;0.20;;;22.60;38.30;;;;;;5051189;28;20386;-62
2021/05/24 04:03:13;;;;;;;0.30;0.20;;;22.60;38.20;;;;;;5050861;28;20405;-63
2021/05/24 04:05:40;;;;;;;0.63;0.20;;;22.60;38.40;;;;;;5052010;28;20870;-63
2021/05/24 04:08:07;;;;;;;1.10;0.30;;;22.50;38.30;;;;;;5051520;28;20809;-63
2021/05/24 04:10:36;;;;;;;0.80;0.28;;;22.50;38.30;;;;;;5051404;28;20735;-62
2021/05/24 04:13:03;;;;;;;0.50;0.20;;;22.50;38.30;;;;;;5051469;28;20417;-63
2021/05/24 04:15:29;;;;;;;0.40;0.20;;;22.50;38.20;;;;;;5051592;28;20389;-63
2021/05/24 04:17:58;;;;;;;0.60;0.20;;;22.50;38.10;;;;;;5051845;28;20389;-64
2021/05/24 04:20:24;;;;;;;0.33;0.20;;;22.50;38.20;;;;;;5051673;28;20445;-63
2021/05/24 04:22:50;;;;;;;0.52;0.20;;;22.40;38.20;;;;;;5050717;28;20393;-64
2021/05/24 04:25:16;;;;;;;0.70;0.20;;;22.40;38.40;;;;;;5050810;28;20461;-64
2021/05/24 04:27:42;;;;;;;0.52;0.20;;;22.40;38.40;;;;;;5051379;28;20386;-63
2021/05/24 04:30:09;;;;;;;0.98;0.28;;;22.40;38.30;;;;;;5051196;28;20420;-61
2021/05/24 04:32:35;;;;;;;0.50;0.20;;;22.40;38.30;;;;;;5061849;28;20879;-63
2021/05/24 04:35:01;;;;;;;0.30;0.15;;;22.40;38.50;;;;;;5056001;28;20401;-63
2021/05/24 04:37:27;;;;;;;0.35;0.20;;;22.30;38.50;;;;;;5051354;28;20377;-62
2021/05/24 04:39:53;;;;;;;0.30;0.20;;;22.40;38.50;;;;;;5051323;28;20447;-63
2021/05/24 04:42:20;;;;;;;0.40;0.20;;;22.40;38.50;;;;;;5051330;28;20381;-63
2021/05/24 04:44:46;;;;;;;0.90;0.20;;;22.40;38.40;;;;;;5050723;28;20424;-63
2021/05/24 04:47:12;;;;;;;0.47;0.20;;;22.40;38.20;;;;;;5051100;28;21011;-63
2021/05/24 04:49:37;;;;;;;0.60;0.20;;;22.50;38.10;;;;;;5051228;28;20394;-63
2021/05/24 04:52:04;;;;;;;0.60;0.20;;;22.50;38.00;;;;;;5051229;28;20469;-63
2021/05/24 04:54:30;;;;;;;0.35;0.20;;;22.60;38.00;;;;;;5051089;28;20484;-63
2021/05/24 04:56:56;;;;;;;0.30;0.20;;;22.60;37.90;;;;;;5050719;28;20481;-63
2021/05/24 04:59:21;;;;;;;0.40;0.20;;;22.60;37.80;;;;;;5051130;28;20938;-63
2021/05/24 05:01:48;;;;;;;0.35;0.20;;;22.60;37.80;;;;;;5050962;28;20418;-63
2021/05/24 05:04:17;;;;;;;0.35;0.20;;;22.70;37.70;;;;;;5051022;28;20885;-63
2021/05/24 05:06:43;;;;;;;0.22;0.17;;;22.70;37.70;;;;;;5050690;28;20459;-62
2021/05/24 05:09:09;;;;;;;0.38;0.20;;;22.70;37.70;;;;;;5050807;28;20424;-63
2021/05/24 05:11:35;;;;;;;0.40;0.20;;;22.70;37.70;;;;;;5051381;28;20381;-63
2021/05/24 05:14:01;;;;;;;0.40;0.20;;;22.60;37.70;;;;;;5053537;28;20394;-63
2021/05/24 05:16:27;;;;;;;0.70;0.20;;;22.70;37.80;;;;;;5054972;28;20491;-62
2021/05/24 05:18:53;;;;;;;0.40;0.10;;;22.60;37.70;;;;;;5054354;28;20523;-63
2021/05/24 05:21:18;;;;;;;0.30;0.20;;;22.60;37.80;;;;;;5054846;28;20385;-64
2021/05/24 05:23:45;;;;;;;0.43;0.13;;;22.60;37.80;;;;;;5054572;28;20900;-63
2021/05/24 05:26:10;;;;;;;0.45;0.20;;;22.70;37.80;;;;;;5054718;28;20389;-64
2021/05/24 05:28:36;;;;;;;0.30;0.20;;;22.70;37.70;;;;;;5054695;28;20792;-62
2021/05/24 05:31:02;;;;;;;0.63;0.25;;;22.70;37.70;;;;;;5054330;28;20881;-63
2021/05/24 05:33:28;;;;;;;0.40;0.20;;;22.70;37.70;;;;;;5054596;28;20390;-63
2021/05/24 05:35:56;;;;;;;0.40;0.27;;;22.70;37.70;;;;;;5054702;28;20745;-63
2021/05/24 05:38:22;;;;;;;0.52;0.20;;;22.70;37.60;;;;;;5054453;28;20382;-63
2021/05/24 05:40:51;;;;;;;0.73;0.30;;;22.70;37.60;;;;;;5053928;28;20451;-62
2021/05/24 05:43:18;;;;;;;0.80;0.10;;;22.70;37.50;;;;;;5054543;28;20396;-62
2021/05/24 05:45:45;;;;;;;1.08;0.20;;;22.70;37.70;;;;;;5054353;28;20447;-63
2021/05/24 05:48:11;;;;;;;0.52;0.20;;;22.70;37.20;;;;;;5054258;28;20397;-63
2021/05/24 05:50:36;;;;;;;0.67;0.30;;;22.70;37.30;;;;;;5054227;28;20401;-63
2021/05/24 05:53:03;;;;;;;1.98;0.30;;;22.70;37.20;;;;;;5053712;28;20385;-62
2021/05/24 05:55:29;;;;;;;0.93;0.20;;;22.70;37.10;;;;;;5054004;28;20876;-62
2021/05/24 05:57:55;;;;;;;1.40;0.30;;;22.60;37.10;;;;;;5036316;28;20397;-63
2021/05/24 06:00:21;;;;;;;2.80;0.47;;;22.60;37.00;;;;;;5056984;28;20389;-63
2021/05/24 06:02:47;;;;;;;1.65;0.30;;;22.60;37.10;;;;;;5053340;28;20420;-63
2021/05/24 06:05:13;;;;;;;1.52;0.30;;;22.60;37.50;;;;;;5053877;28;20422;-64
2021/05/24 06:07:39;;;;;;;6.22;0.68;;;22.60;37.60;;;;;;5053864;28;20773;-62
2021/05/24 06:10:07;;;;;;;2.78;0.45;;;22.60;37.90;;;;;;5053743;28;20396;-64
2021/05/24 06:12:32;;;;;;;1.90;0.40;;;22.50;37.70;;;;;;5053590;28;20396;-64
2021/05/24 06:14:58;;;;;;;1.15;0.30;;;22.50;37.80;;;;;;5053101;28;20742;-62
2021/05/24 06:17:24;;;;;;;2.33;0.30;;;22.60;37.80;;;;;;5053799;28;20432;-63
2021/05/24 06:19:50;;;;;;;3.22;0.30;;;22.60;37.90;;;;;;5055002;28;20393;-62
2021/05/24 06:22:15;;;;;;;0.85;0.30;;;22.60;38.10;;;;;;5054839;28;20446;-64
2021/05/24 06:24:41;;;;;;;1.73;0.30;;;22.60;38.60;;;;;;5054422;28;20413;-58
2021/05/24 06:27:07;;;;;;;4.07;0.40;;;22.60;38.90;;;;;;5060832;28;20392;-62
2021/05/24 06:29:33;;;;;;;1.53;0.30;;;22.60;38.50;;;;;;5061919;28;20386;-59
2021/05/24 06:31:59;;;;;;;4.72;0.43;;;22.60;38.50;;;;;;5050341;28;20756;-62
2021/05/24 06:34:25;;;;;;;2.08;0.30;;;22.70;38.60;;;;;;5037370;28;20770;-63
2021/05/24 06:36:51;;;;;;;3.05;0.30;;;22.60;38.60;;;;;;5067043;28;20378;-62
2021/05/24 06:39:17;;;;;;;2.28;0.30;;;22.70;38.60;;;;;;5062397;28;20392;-62
2021/05/24 06:41:43;;;;;;;2.85;0.40;;;22.70;38.70;;;;;;5060178;28;20715;-62
2021/05/24 06:44:09;;;;;;;2.47;0.30;;;22.70;38.70;;;;;;5069383;28;21269;-63
2021/05/24 06:46:35;;;;;;;2.20;0.20;;;22.80;38.90;;;;;;5049289;28;20390;-62
2021/05/24 06:49:01;;;;;;;1.33;0.30;;;22.70;39.20;;;;;;5053827;28;20407;-63
2021/05/24 06:51:27;;;;;;;2.03;0.30;;;22.70;39.60;;;;;;5065265;28;20444;-63
2021/05/24 06:53:53;;;;;;;2.25;0.20;;;22.70;39.60;;;;;;5057007;28;20390;-63
2021/05/24 06:56:20;;;;;;;1.95;0.38;;;22.60;40.10;;;;;;5069479;28;20397;-62
2021/05/24 06:58:45;;;;;;;1.93;0.30;;;22.70;39.50;;;;;;5058932;28;20441;-61
2021/05/24 07:01:11;;;;;;;2.75;0.28;;;22.60;39.80;;;;;;5062509;28;20483;-61
2021/05/24 07:03:37;;;;;;;2.03;0.40;;;22.70;40.30;;;;;;5066191;28;20403;-62
2021/05/24 07:06:03;;;;;;;1.08;0.20;;;22.60;40.10;;;;;;5056917;28;20402;-63
2021/05/24 07:08:29;;;;;;;1.90;0.40;;;22.70;40.50;;;;;;5062823;28;20804;-63
2021/05/24 07:10:54;;;;;;;2.15;0.30;;;22.70;40.60;;;;;;5058057;28;20393;-63
2021/05/24 07:13:21;;;;;;;1.23;0.23;;;22.70;40.70;;;;;;5068555;28;20467;-64
2021/05/24 07:15:46;;;;;;;1.45;0.25;;;22.70;40.70;;;;;;5057118;28;20403;-63
2021/05/24 07:18:12;;;;;;;2.20;0.30;;;22.80;40.90;;;;;;5064772;28;20447;-61
2021/05/24 07:20:38;;;;;;;3.03;0.30;;;22.80;41.00;;;;;;5068693;28;20492;-64
2021/05/24 07:23:03;;;;;;;1.67;0.20;;;22.80;41.10;;;;;;5037222;28;20408;-64
2021/05/24 07:25:29;;;;;;;1.80;0.35;;;22.80;41.00;;;;;;5071624;28;20493;-63
2021/05/24 07:27:55;;;;;;;2.33;0.25;;;22.90;39.60;;;;;;5072192;28;20422;-64
2021/05/24 07:30:21;;;;;;;5.27;0.47;;;22.80;39.90;;;;;;5071776;28;20426;-64
2021/05/24 07:32:47;;;;;;;3.08;0.30;;;22.80;39.90;;;;;;5071633;28;20831;-64
2021/05/24 07:35:13;;;;;;;2.78;0.20;;;22.80;39.70;;;;;;5071818;28;20486;-64
2021/05/24 07:37:39;;;;;;;3.63;0.50;;;22.80;39.70;;;;;;5072082;28;20386;-64
2021/05/24 07:40:07;;;;;;;3.17;0.43;;;22.90;39.80;;;;;;5072034;28;20388;-64
2021/05/24 07:42:33;;;;;;;4.65;0.50;;;22.80;39.50;;;;;;5071845;28;20904;-64
2021/05/24 07:44:59;;;;;;;4.70;1.00;;;22.90;39.00;;;;;;5071236;28;20419;-64
2021/05/24 07:47:25;;;;;;;2.73;0.40;;;22.80;38.60;;;;;;5071973;28;20470;-64
2021/05/24 07:49:50;;;;;;;3.10;0.43;;;22.80;38.30;;;;;;5053785;28;20420;-63
2021/05/24 07:52:17;;;;;;;3.07;0.37;;;22.80;38.50;;;;;;5071904;28;20879;-63
2021/05/24 07:54:42;;;;;;;2.90;0.40;;;22.80;38.30;;;;;;5072085;28;20392;-63
2021/05/24 07:57:08;;;;;;;2.33;0.35;;;22.80;38.40;;;;;;5071429;28;20846;-63
2021/05/24 07:59:34;;;;;;;2.17;0.30;;;22.80;38.50;;;;;;5053877;28;20430;-63
2021/05/24 08:02:02;;;;;;;2.63;0.37;;;22.80;38.60;;;;;;5071713;28;21060;-63
2021/05/24 08:04:28;;;;;;;1.30;0.33;;;22.80;38.50;;;;;;5071717;28;20438;-63
2021/05/24 08:06:56;;;;;;;2.20;0.30;;;22.80;38.50;;;;;;5070778;28;20422;-64
2021/05/24 08:09:21;;;;;;;3.38;0.30;;;22.80;38.50;;;;;;5071705;28;20388;-63
2021/05/24 08:11:47;;;;;;;2.20;0.30;;;22.80;38.40;;;;;;5071695;28;20395;-64
2021/05/24 08:14:16;;;;;;;1.00;0.25;;;22.80;38.50;;;;;;5053475;28;20413;-63
2021/05/24 08:16:45;;;;;;;1.20;0.20;;;22.80;38.50;;;;;;5071569;28;20407;-61
2021/05/24 08:19:12;;;;;;;1.23;0.28;;;22.80;38.30;;;;;;5071120;28;20437;-63
2021/05/24 08:21:45;;;;;;;0.85;0.30;;;22.80;38.30;;;;;;5071742;28;20441;-63
2021/05/24 08:24:11;;;;;;;1.67;0.30;;;22.80;38.30;;;;;;5071725;28;20502;-63
2021/05/24 08:26:38;;;;;;;1.55;0.30;;;22.80;38.30;;;;;;5046576;28;20507;-62
2021/05/24 08:29:04;;;;;;;1.35;0.30;;;22.80;38.30;;;;;;5049716;28;20393;-64
2021/05/24 08:31:30;;;;;;;1.87;0.20;;;22.80;38.30;;;;;;5050049;28;20393;-64
2021/05/24 08:33:55;;;;;;;1.02;0.50;;;22.80;38.20;;;;;;5050032;28;20750;-63
2021/05/24 08:36:21;;;;;;;1.00;0.20;;;22.90;38.20;;;;;;5049888;28;20413;-63
2021/05/24 08:38:47;;;;;;;1.27;0.30;;;22.90;38.10;;;;;;5049968;28;20429;-63
2021/05/24 08:41:12;;;;;;;0.93;0.22;;;22.90;38.00;;;;;;5049429;28;20435;-64
2021/05/24 08:43:39;;;;;;;1.10;0.20;;;22.90;38.10;;;;;;5050489;28;20393;-62
2021/05/24 08:46:05;;;;;;;0.60;0.20;;;22.80;38.10;;;;;;5049814;28;20429;-64
2021/05/24 08:48:31;;;;;;;1.27;0.20;;;22.90;38.00;;;;;;5051712;28;20385;-64
2021/05/24 08:50:58;;;;;;;1.42;0.25;;;22.80;38.10;;;;;;5053605;28;20393;-65
2021/05/24 08:53:24;;;;;;;0.50;0.20;;;22.80;38.10;;;;;;5054040;28;20439;-67
2021/05/24 08:55:53;;;;;;;0.68;0.22;;;22.90;38.10;;;;;;5054112;28;20402;-64
2021/05/24 08:58:19;;;;;;;1.37;0.33;;;22.90;38.00;;;;;;5054102;28;20429;-62
2021/05/24 09:00:45;;;;;;;0.57;0.30;;;22.80;38.00;;;;;;5053317;28;20968;-62
2021/05/24 09:03:19;;;;;;;0.52;0.22;;;22.80;38.00;;;;;;5054075;28;20417;-64
2021/05/24 09:05:46;;;;;;;0.50;0.30;;;22.80;38.00;;;;;;5055249;28;20417;-64
2021/05/24 09:08:12;;;;;;;0.80;0.20;;;22.80;38.10;;;;;;5055065;28;20381;-64
2021/05/24 09:10:42;;;;;;;0.80;0.20;;;22.80;38.00;;;;;;5055051;28;20391;-64
2021/05/24 09:13:13;;;;;;;0.35;0.17;;;22.80;38.00;;;;;;5054550;28;20396;-63
2021/05/24 09:15:41;;;;;;;0.52;0.20;;;22.80;38.10;;;;;;5055024;28;20385;-63
2021/05/24 09:18:09;;;;;;;1.00;0.20;;;22.80;38.00;;;;;;5054845;28;20416;-60
2021/05/24 09:20:40;;;;;;;1.50;0.30;;;22.80;38.00;;;;;;5054809;28;20440;-64
2021/05/24 09:23:20;;;;;;;0.80;0.20;;;22.80;38.00;;;;;;5054367;28;20424;-64
2021/05/24 09:25:59;;;;;;;0.80;0.30;;;22.80;38.10;;;;;;5054529;28;20816;-63
2021/05/24 09:28:35;;;;;;;0.40;0.20;;;22.80;38.10;;;;;;5054666;28;20877;-63
2021/05/24 09:31:25;;;;;;;0.90;0.30;;;22.80;38.10;;;;;;5054278;28;20397;-63
2021/05/24 09:34:00;;;;;;;2.45;0.20;;;22.80;38.10;;;;;;5054491;28;20396;-63
2021/05/24 09:36:27;;;;;;;1.73;0.30;;;22.80;38.00;;;;;;5052385;28;20761;-65
2021/05/24 09:38:59;;;;;;;3.03;0.40;;;22.80;38.20;;;;;;5048088;28;20900;-64
2021/05/24 09:41:24;;;;;;;2.45;0.50;;;22.80;38.80;;;;;;5029574;28;20486;-64
2021/05/24 09:43:53;;;;;;;2.20;0.40;;;22.80;39.00;;;;;;5052099;28;20830;-64
2021/05/24 09:46:30;;;;;;;4.40;0.50;;;22.80;38.40;;;;;;5051698;28;20404;-63
2021/05/24 09:49:02;;;;;;;3.08;0.80;;;22.80;39.80;;;;;;5049914;28;20478;-63
2021/05/24 09:51:31;;;;;;;3.08;0.50;;;22.90;40.00;;;;;;5050990;28;20889;-65
2021/05/24 09:54:09;;;;;;;2.83;0.35;;;22.90;40.10;;;;;;5053232;28;20393;-61
2021/05/24 09:56:40;;;;;;;2.70;0.40;;;23.00;40.10;;;;;;5052211;28;20385;-63
2021/05/24 09:59:14;;;;;;;2.85;0.30;;;23.00;40.10;;;;;;5047694;28;20427;-64
2021/05/24 10:01:43;;;;;;;2.40;0.40;;;23.00;39.60;;;;;;5051449;28;20765;-63
2021/05/24 10:04:15;;;;;;;2.28;0.40;;;23.00;40.00;;;;;;5053079;28;20417;-62
2021/05/24 10:06:42;;;;;;;5.00;0.50;;;23.00;39.90;;;;;;5049740;28;20480;-64
2021/05/24 10:09:09;;;;;;;2.70;0.40;;;23.10;39.90;;;;;;5052262;28;20447;-63
2021/05/24 10:11:38;;;;;;;1.20;0.30;;;23.10;39.90;;;;;;5053642;28;20493;-63
2021/05/24 10:14:04;;;;;;;2.17;0.40;;;23.10;40.40;;;;;;5050577;28;20382;-62
2021/05/24 10:16:33;;;;;;;2.20;0.40;;;23.10;40.00;;;;;;5053666;28;20381;-64
2021/05/24 10:18:59;;;;;;;3.55;0.47;;;23.10;40.20;;;;;;5052986;28;20397;-64
2021/05/24 10:21:25;;;;;;;3.78;0.47;;;23.10;41.00;;;;;;5053516;28;20378;-65
2021/05/24 10:23:52;;;;;;;1.40;0.40;;;23.10;40.60;;;;;;5053431;28;20436;-64
2021/05/24 10:26:19;;;;;;;2.28;0.30;;;23.10;41.00;;;;;;5053312;28;20397;-63
2021/05/24 10:28:47;;;;;;;2.97;0.40;;;23.10;39.80;;;;;;5053182;28;20476;-63
2021/05/24 10:31:19;;;;;;;1.15;0.55;;;23.10;39.60;;;;;;5052814;28;20397;-63
2021/05/24 10:33:46;;;;;;;3.47;0.50;;;23.10;39.40;;;;;;5035117;28;20390;-64
2021/05/24 10:36:29;;;;;;;3.45;0.50;;;23.00;39.40;;;;;;5053319;28;20377;-64
2021/05/24 10:39:08;;;;;;;1.95;0.50;;;23.00;39.20;;;;;;5053076;28;20722;-60
2021/05/24 10:42:05;;;;;;;3.00;0.50;;;23.10;39.10;;;;;;5053162;28;20386;-64
2021/05/24 10:44:40;;;;;;;3.40;0.60;;;23.10;39.70;;;;;;5025821;28;20437;-59
2021/05/24 10:47:25;;;;;;;3.10;0.50;;;23.10;39.50;;;;;;5042907;28;20485;-64
2021/05/24 10:50:06;;;;;;;3.60;0.63;;;23.10;39.40;;;;;;5053052;28;20454;-64
2021/05/24 10:52:36;;;;;;;5.13;0.55;;;23.10;39.40;;;;;;5053022;28;20820;-65
2021/05/24 10:55:27;;;;;;;4.28;1.08;;;23.10;39.80;;;;;;5052335;28;20424;-63
2021/05/24 10:58:08;;;;;;;2.67;0.50;;;23.10;39.60;;;;;;5052677;28;20464;-67
2021/05/24 11:01:03;;;;;;;4.75;0.68;;;23.10;39.70;;;;;;5052879;28;20381;-65
2021/05/24 11:03:29;;;;;;;3.25;0.50;;;23.10;39.90;;;;;;5052565;28;20404;-65
2021/05/24 11:06:18;;;;;;;3.45;0.57;;;23.10;39.90;;;;;;5052599;28;20429;-65
2021/05/24 11:08:59;;;;;;;3.05;0.43;;;23.10;40.00;;;;;;5052674;28;20473;-64
2021/05/24 11:11:26;;;;;;;2.45;0.50;;;23.10;40.10;;;;;;5052047;28;20516;-64
2021/05/24 11:14:06;;;;;;;2.05;0.40;;;23.20;39.60;;;;;;5052413;28;20929;-61
2021/05/24 11:16:34;;;;;;;3.53;0.57;;;23.20;39.80;;;;;;5052084;28;20390;-64
2021/05/24 11:19:17;;;;;;;5.40;0.80;;;23.20;39.90;;;;;;5052090;28;20982;-64
2021/05/24 11:21:54;;;;;;;1.63;0.65;;;23.20;40.50;;;;;;5052381;28;20779;-63
2021/05/24 11:24:23;;;;;;;4.28;0.70;;;23.30;40.40;;;;;;5052427;28;20412;-63
2021/05/24 11:27:16;;;;;;;2.92;0.70;;;23.30;40.30;;;;;;5052172;28;20947;-64
2021/05/24 11:29:43;;;;;;;5.20;0.95;;;23.30;40.30;;;;;;5052259;28;20393;-63
2021/05/24 11:32:27;;;;;;;3.00;0.60;;;23.30;40.20;;;;;;5052341;28;20438;-64
2021/05/24 11:34:54;;;;;;;3.38;0.70;;;23.30;40.20;;;;;;5052161;28;20455;-64
2021/05/24 11:37:39;;;;;;;3.95;0.60;;;23.30;40.10;;;;;;5051674;28;20409;-64
2021/05/24 11:40:13;;;;;;;3.42;0.60;;;23.30;39.80;;;;;;5052095;28;20830;-64
2021/05/24 11:42:40;;;;;;;2.45;0.70;;;23.30;40.30;;;;;;5052026;28;20393;-64
2021/05/24 11:45:15;;;;;;;3.40;0.70;;;23.30;39.90;;;;;;5051144;28;20425;-64
2021/05/24 11:47:41;;;;;;;2.17;0.70;;;23.30;40.10;;;;;;5045004;28;20881;-64
2021/05/24 11:50:09;;;;;;;2.47;0.70;;;23.30;39.90;;;;;;5037142;28;20449;-64
2021/05/24 11:52:36;;;;;;;2.90;0.50;;;23.30;39.90;;;;;;5032075;28;20395;-64
2021/05/24 11:55:05;;;;;;;3.28;0.60;;;23.30;39.90;;;;;;5031647;28;20399;-63
2021/05/24 11:57:32;;;;;;;2.75;0.60;;;23.30;39.90;;;;;;5031973;28;20823;-64
2021/05/24 11:59:58;;;;;;;2.00;0.43;;;23.30;39.90;;;;;;5031786;28;20396;-64
2021/05/24 12:02:24;;;;;;;3.17;0.70;;;23.30;39.90;;;;;;5031743;28;20901;-64
2021/05/24 12:04:51;;;;;;;2.33;0.50;;;23.30;39.90;;;;;;5031736;28;20890;-63
2021/05/24 12:07:19;;;;;;;2.80;0.63;;;23.30;39.80;;;;;;5031218;28;20419;-64
2021/05/24 12:09:46;;;;;;;1.88;0.50;;;23.30;39.70;;;;;;5031570;28;20403;-64
2021/05/24 12:12:38;;;;;;;1.95;0.60;;;23.30;39.70;;;;;;5031693;28;20389;-64
2021/05/24 12:15:12;;;;;;;1.65;0.60;;;23.30;39.60;;;;;;5031485;28;20395;-64
2021/05/24 12:17:38;;;;;;;1.60;0.70;;;23.30;39.50;;;;;;5031323;28;20739;-64
2021/05/24 12:20:10;;;;;;;2.65;0.60;;;23.40;39.70;;;;;;5030335;28;20403;-64
2021/05/24 12:22:43;;;;;;;1.70;0.60;;;23.40;39.50;;;;;;5030752;28;20391;-64
2021/05/24 12:25:10;;;;;;;1.90;0.60;;;23.40;39.50;;;;;;5030950;28;20767;-64
2021/05/24 12:27:36;;;;;;;2.35;0.60;;;23.30;39.40;;;;;;5031568;28;20395;-64
2021/05/24 12:30:42;;;;;;;1.52;0.40;;;23.40;39.40;;;;;;5031377;28;20387;-64
2021/05/24 12:33:10;;;;;;;1.58;0.80;;;23.40;39.40;;;;;;5030901;28;20387;-63
2021/05/24 12:35:50;;;;;;;1.60;0.68;;;23.40;39.40;;;;;;5031478;28;20391;-64
2021/05/24 12:40:56;;;;;;;1.73;0.60;;;23.40;39.30;;;;;;5031314;28;20724;-65
2021/05/24 12:43:22;;;;;;;2.22;0.50;;;23.40;39.30;;;;;;5029611;28;20387;-64
2021/05/24 12:45:48;;;;;;;2.50;0.70;;;23.40;39.30;;;;;;5013391;28;20791;-64
2021/05/24 12:48:15;;;;;;;1.90;0.70;;;23.40;39.30;;;;;;5030713;28;20966;-65
2021/05/24 12:50:43;;;;;;;1.95;0.90;;;23.40;39.30;;;;;;5012785;28;20401;-64
2021/05/24 12:53:14;;;;;;;1.23;0.60;;;23.40;39.30;;;;;;5029532;28;20471;-63
2021/05/24 12:55:40;;;;;;;1.08;0.55;;;23.40;39.30;;;;;;5031185;28;20387;-63